createdAt,value
2017-08-13T00:01:28.914Z,79.88
2017-08-13T00:03:58.230Z,80.14
2017-08-13T00:06:26.571Z,80.05
2017-08-13T00:08:55.711Z,79.87
2017-08-13T00:11:24.388Z,79.66
2017-08-13T00:13:52.756Z,80.05
2017-08-13T00:16:21.110Z,79.74
2017-08-13T00:18:49.834Z,79.02
2017-08-13T00:21:18.220Z,78.44
2017-08-13T00:23:46.574Z,78.90
2017-08-13T00:26:15.574Z,78.57
2017-08-13T00:28:43.950Z,78.86
2017-08-13T00:31:12.311Z,78.56
2017-08-13T00:33:41.201Z,78.58
2017-08-13T00:36:09.570Z,79.22
2017-08-13T00:38:38.700Z,79.26
2017-08-13T00:41:07.463Z,79.49
2017-08-13T00:43:35.807Z,79.06
2017-08-13T00:46:04.151Z,78.98
2017-08-13T00:48:33.318Z,78.87
2017-08-13T00:51:01.658Z,78.63
2017-08-13T00:53:30.032Z,78.65
2017-08-13T00:55:58.650Z,79.05
2017-08-13T00:58:27.776Z,79.06
2017-08-13T01:00:56.141Z,78.79
2017-08-13T01:03:24.854Z,78.84
2017-08-13T01:05:53.206Z,79.12
2017-08-13T01:08:22.335Z,79.46
2017-08-13T01:10:51.158Z,79.69
2017-08-13T01:13:19.523Z,79.96
2017-08-13T01:15:47.872Z,79.51
2017-08-13T01:18:16.777Z,79.32
2017-08-13T01:20:45.128Z,79.54
2017-08-13T01:23:13.461Z,79.49
2017-08-13T01:25:42.433Z,79.43
2017-08-13T01:28:10.791Z,78.70
2017-08-13T01:30:39.144Z,79.06
2017-08-13T01:33:08.091Z,79.35
2017-08-13T01:35:36.447Z,78.98
2017-08-13T01:38:04.797Z,79.89
2017-08-13T01:40:33.446Z,79.83
2017-08-13T01:43:01.800Z,79.82
2017-08-13T01:45:30.181Z,79.21
2017-08-13T01:47:58.849Z,79.06
2017-08-13T01:50:27.229Z,79.18
2017-08-13T01:52:55.573Z,79.75
2017-08-13T01:55:24.455Z,79.64
2017-08-13T01:57:52.806Z,79.54
2017-08-13T02:00:21.191Z,79.75
2017-08-13T02:02:49.803Z,80.19
2017-08-13T02:05:18.176Z,80.41
2017-08-13T02:07:46.514Z,80.65
2017-08-13T02:10:15.196Z,80.31
2017-08-13T02:12:43.561Z,79.94
2017-08-13T02:15:11.914Z,80.19
2017-08-13T02:17:40.698Z,80.59
2017-08-13T02:20:09.080Z,80.92
2017-08-13T02:22:38.203Z,81.12
2017-08-13T02:25:06.907Z,81.52
2017-08-13T02:27:35.304Z,81.52
2017-08-13T02:30:03.682Z,81.51
2017-08-13T02:32:32.702Z,81.12
2017-08-13T02:35:01.054Z,80.88
2017-08-13T02:37:29.435Z,81.25
2017-08-13T02:39:58.220Z,82.36
2017-08-13T02:42:26.588Z,82.00
2017-08-13T02:44:54.950Z,82.47
2017-08-13T02:47:23.769Z,82.13
2017-08-13T02:49:52.168Z,81.74
2017-08-13T02:52:20.520Z,81.13
2017-08-13T02:54:49.373Z,80.92
2017-08-13T02:57:17.743Z,81.43
2017-08-13T02:59:46.844Z,81.51
2017-08-13T03:02:16.469Z,81.50
2017-08-13T03:04:44.850Z,81.03
2017-08-13T03:07:13.250Z,80.97
2017-08-13T03:09:41.922Z,80.53
2017-08-13T03:12:10.261Z,79.80
2017-08-13T03:14:39.373Z,80.43
2017-08-13T03:17:08.201Z,80.59
2017-08-13T03:19:36.541Z,80.88
2017-08-13T03:22:04.918Z,80.87
2017-08-13T03:24:33.693Z,81.03
2017-08-13T03:27:02.074Z,80.71
2017-08-13T03:29:30.430Z,81.60
2017-08-13T03:31:59.108Z,80.79
2017-08-13T03:34:27.500Z,80.37
2017-08-13T03:36:55.852Z,80.37
2017-08-13T03:39:24.722Z,80.03
2017-08-13T03:41:53.072Z,79.62
2017-08-13T03:44:22.218Z,79.58
2017-08-13T03:46:50.916Z,79.84
2017-08-13T03:49:19.277Z,79.48
2017-08-13T03:51:47.655Z,79.31
2017-08-13T03:54:16.379Z,79.24
2017-08-13T03:56:44.733Z,79.38
2017-08-13T03:59:13.069Z,79.18
2017-08-13T04:01:41.854Z,79.32
2017-08-13T04:04:10.204Z,79.50
2017-08-13T04:06:38.556Z,79.57
2017-08-13T04:09:07.226Z,79.43
2017-08-13T04:11:35.615Z,79.58
2017-08-13T04:14:03.980Z,79.04
2017-08-13T04:16:32.640Z,78.29
2017-08-13T04:19:00.990Z,78.32
2017-08-13T04:21:29.365Z,77.91
2017-08-13T04:23:58.213Z,77.69
2017-08-13T04:26:26.566Z,78.05
2017-08-13T04:28:55.694Z,77.99
2017-08-13T04:31:24.484Z,77.67
2017-08-13T04:33:52.826Z,77.32
2017-08-13T04:36:21.169Z,76.97
2017-08-13T04:38:49.924Z,77.00
2017-08-13T04:41:18.290Z,76.91
2017-08-13T04:43:46.670Z,76.71
2017-08-13T04:46:15.304Z,76.43
2017-08-13T04:48:43.674Z,76.06
2017-08-13T04:51:12.067Z,76.68
2017-08-13T04:53:40.874Z,77.83
2017-08-13T04:56:09.246Z,78.64
2017-08-13T04:58:37.573Z,78.84
2017-08-13T05:01:06.278Z,78.50
2017-08-13T05:03:34.636Z,78.56
2017-08-13T05:06:02.997Z,79.10
2017-08-13T05:08:31.907Z,79.35
2017-08-13T05:11:00.264Z,78.05
2017-08-13T05:13:29.391Z,77.91
2017-08-13T05:15:58.376Z,78.54
2017-08-13T05:18:26.737Z,78.32
2017-08-13T05:20:55.878Z,77.67
2017-08-13T05:23:24.514Z,77.29
2017-08-13T05:25:53.651Z,77.41
2017-08-13T05:28:22.011Z,77.67
2017-08-13T05:30:50.869Z,77.67
2017-08-13T05:33:19.228Z,76.75
2017-08-13T05:35:47.592Z,77.09
2017-08-13T05:38:16.358Z,76.43
2017-08-13T05:40:44.740Z,77.30
2017-08-13T05:43:13.104Z,75.98
2017-08-13T05:45:41.824Z,75.78
2017-08-13T05:48:10.173Z,74.81
2017-08-13T05:50:38.533Z,74.78
2017-08-13T05:53:07.486Z,74.24
2017-08-13T05:55:35.852Z,73.74
2017-08-13T05:58:04.209Z,73.64
2017-08-13T06:00:33.305Z,73.23
2017-08-13T06:03:01.650Z,74.33
2017-08-13T06:05:30.769Z,75.06
2017-08-13T06:07:59.416Z,75.87
2017-08-13T06:10:27.790Z,74.48
2017-08-13T06:12:56.189Z,73.61
2017-08-13T06:15:25.624Z,73.47
2017-08-13T06:17:54.003Z,71.46
2017-08-13T06:20:22.349Z,71.44
2017-08-13T06:22:51.118Z,72.17
2017-08-13T06:25:19.492Z,72.15
2017-08-13T06:27:47.850Z,71.03
2017-08-13T06:30:16.486Z,71.23
2017-08-13T06:32:44.868Z,71.87
2017-08-13T06:35:13.224Z,71.74
2017-08-13T06:37:41.904Z,70.85
2017-08-13T06:40:10.275Z,70.31
2017-08-13T06:42:38.629Z,72.40
2017-08-13T06:45:07.337Z,72.17
2017-08-13T06:47:35.679Z,73.72
2017-08-13T06:50:04.053Z,73.91
2017-08-13T06:52:32.742Z,74.21
2017-08-13T06:55:01.110Z,73.65
2017-08-13T06:57:29.473Z,73.85
2017-08-13T06:59:59.091Z,72.65
2017-08-13T07:02:27.467Z,71.94
2017-08-13T07:04:56.576Z,72.39
2017-08-13T07:07:26.149Z,69.95
2017-08-13T07:09:54.519Z,66.81
2017-08-13T07:12:22.879Z,67.59
2017-08-13T07:14:51.651Z,65.38
2017-08-13T07:17:20.002Z,65.51
2017-08-13T07:19:49.167Z,65.25
2017-08-13T07:22:18.146Z,63.59
2017-08-13T07:24:46.518Z,63.24
2017-08-13T07:27:14.911Z,64.55
2017-08-13T07:29:43.664Z,65.11
2017-08-13T07:32:12.103Z,65.77
2017-08-13T07:34:40.470Z,63.70
2017-08-13T07:37:09.746Z,61.70
2017-08-13T07:39:38.125Z,62.01
2017-08-13T07:42:06.499Z,62.39
2017-08-13T07:44:35.189Z,62.29
2017-08-13T07:47:03.605Z,62.70
2017-08-13T07:49:31.976Z,60.86
2017-08-13T07:52:00.875Z,60.07
2017-08-13T07:54:29.284Z,58.89
2017-08-13T07:56:57.681Z,57.54
2017-08-13T07:59:26.585Z,56.08
2017-08-13T08:01:54.982Z,55.48
2017-08-13T08:04:23.384Z,56.20
2017-08-13T08:06:52.324Z,56.00
2017-08-13T08:09:20.683Z,55.65
2017-08-13T08:11:49.024Z,54.46
2017-08-13T08:14:18.097Z,55.25
2017-08-13T08:16:46.459Z,57.03
2017-08-13T08:19:14.879Z,57.53
2017-08-13T08:21:43.653Z,59.06
2017-08-13T08:24:12.004Z,60.34
2017-08-13T08:26:40.502Z,62.81
2017-08-13T08:29:09.374Z,62.35
2017-08-13T08:31:37.734Z,61.37
2017-08-13T08:36:46.130Z,61.99
2017-08-13T08:39:14.536Z,59.31
2017-08-13T08:41:42.919Z,58.59
2017-08-13T08:44:11.596Z,58.29
2017-08-13T08:46:39.982Z,56.87
2017-08-13T08:49:08.407Z,54.42
2017-08-13T08:51:37.220Z,53.90
2017-08-13T08:54:05.571Z,53.31
2017-08-13T08:56:33.933Z,52.78
2017-08-13T08:59:02.785Z,52.29
2017-08-13T09:01:31.191Z,51.68
2017-08-13T09:03:59.593Z,51.71
2017-08-13T09:06:28.323Z,51.92
2017-08-13T09:08:56.676Z,50.34
2017-08-13T09:11:25.022Z,49.82
2017-08-13T09:13:53.922Z,48.16
2017-08-13T09:16:22.287Z,47.91
2017-08-13T09:18:51.419Z,47.60
2017-08-13T09:21:20.437Z,46.52
2017-08-13T09:23:48.792Z,47.99
2017-08-13T09:26:17.140Z,50.53
2017-08-13T09:28:46.039Z,50.53
2017-08-13T09:31:14.375Z,49.15
2017-08-13T09:33:42.740Z,48.65
2017-08-13T09:36:11.393Z,48.77
2017-08-13T09:38:39.787Z,47.22
2017-08-13T09:41:08.138Z,46.68
2017-08-13T09:43:37.135Z,46.64
2017-08-13T09:46:05.519Z,47.44
2017-08-13T09:48:33.898Z,48.38
2017-08-13T09:51:02.806Z,46.69
2017-08-13T09:53:31.167Z,47.97
2017-08-13T09:55:59.525Z,45.29
2017-08-13T09:58:28.190Z,43.61
2017-08-13T10:00:56.555Z,43.16
2017-08-13T10:03:24.968Z,43.63
2017-08-13T10:05:54.051Z,44.06
2017-08-13T10:08:22.444Z,43.90
2017-08-13T10:10:51.586Z,44.70
2017-08-13T10:13:20.357Z,44.30
2017-08-13T10:15:48.730Z,44.01
2017-08-13T10:18:17.129Z,44.29
2017-08-13T10:20:46.211Z,44.52
2017-08-13T10:23:14.584Z,44.84
2017-08-13T10:25:42.944Z,45.20
2017-08-13T10:28:11.858Z,43.32
2017-08-13T10:30:40.214Z,42.77
2017-08-13T10:33:09.364Z,41.08
2017-08-13T10:35:38.026Z,39.05
2017-08-13T10:38:06.400Z,39.07
2017-08-13T10:40:34.822Z,39.12
2017-08-13T10:43:03.559Z,37.92
2017-08-13T10:45:31.919Z,38.57
2017-08-13T10:48:00.278Z,38.26
2017-08-13T10:50:29.207Z,37.64
2017-08-13T10:52:57.562Z,37.83
2017-08-13T10:55:25.924Z,38.61
2017-08-13T10:57:54.698Z,38.45
2017-08-13T11:00:23.024Z,38.89
2017-08-13T11:02:51.399Z,39.62
2017-08-13T11:05:20.079Z,41.01
2017-08-13T11:07:48.427Z,45.02
2017-08-13T11:10:16.770Z,46.37
2017-08-13T11:12:45.491Z,45.85
2017-08-13T11:15:13.849Z,45.73
2017-08-13T11:17:42.233Z,44.59
2017-08-13T11:20:10.999Z,42.72
2017-08-13T11:22:39.368Z,42.46
2017-08-13T11:25:07.718Z,42.31
2017-08-13T11:27:36.429Z,43.90
2017-08-13T11:30:04.792Z,42.59
2017-08-13T11:32:33.918Z,42.36
2017-08-13T11:35:02.698Z,42.19
2017-08-13T11:37:31.083Z,42.66
2017-08-13T11:39:59.457Z,41.29
2017-08-13T11:42:28.104Z,40.56
2017-08-13T11:44:56.451Z,38.62
2017-08-13T11:47:24.815Z,38.27
2017-08-13T11:49:53.604Z,36.83
2017-08-13T11:52:21.974Z,37.62
2017-08-13T11:54:50.352Z,38.01
2017-08-13T11:57:19.060Z,38.92
2017-08-13T11:59:47.422Z,39.30
2017-08-13T12:02:15.816Z,39.83
2017-08-13T12:04:44.465Z,38.67
2017-08-13T12:07:12.983Z,38.85
2017-08-13T12:09:41.455Z,40.80
2017-08-13T12:12:10.375Z,40.37
2017-08-13T12:14:38.722Z,40.18
2017-08-13T12:17:07.095Z,40.90
2017-08-13T12:19:35.996Z,41.82
2017-08-13T12:22:04.449Z,41.10
2017-08-13T12:24:32.850Z,40.72
2017-08-13T12:27:01.661Z,41.18
2017-08-13T12:29:30.040Z,41.05
2017-08-13T12:31:58.460Z,40.32
2017-08-13T12:34:27.160Z,40.88
2017-08-13T12:36:56.288Z,40.90
2017-08-13T12:39:24.646Z,40.87
2017-08-13T12:41:53.564Z,40.32
2017-08-13T12:44:21.932Z,39.74
2017-08-13T12:46:50.322Z,39.48
2017-08-13T12:49:19.111Z,39.84
2017-08-13T12:51:47.512Z,39.30
2017-08-13T12:54:15.894Z,38.53
2017-08-13T12:56:44.527Z,38.44
2017-08-13T12:59:13.669Z,38.49
2017-08-13T13:01:42.047Z,38.01
2017-08-13T13:04:10.928Z,37.46
2017-08-13T13:06:39.283Z,38.28
2017-08-13T13:09:07.662Z,39.61
2017-08-13T13:11:36.554Z,40.54
2017-08-13T13:14:05.003Z,41.79
2017-08-13T13:16:33.377Z,41.63
2017-08-13T13:19:02.003Z,41.47
2017-08-13T13:21:30.346Z,41.07
2017-08-13T13:23:58.692Z,39.50
2017-08-13T13:26:27.492Z,39.32
2017-08-13T13:28:55.844Z,37.85
2017-08-13T13:31:24.208Z,37.74
2017-08-13T13:33:52.820Z,37.26
2017-08-13T13:36:21.240Z,37.77
2017-08-13T13:38:49.618Z,36.72
2017-08-13T13:41:18.271Z,36.90
2017-08-13T13:43:46.621Z,37.79
2017-08-13T13:46:14.983Z,38.23
2017-08-13T13:48:44.043Z,38.47
2017-08-13T13:51:12.397Z,38.53
2017-08-13T13:53:40.754Z,38.00
2017-08-13T13:56:09.381Z,39.58
2017-08-13T13:58:37.761Z,39.32
2017-08-13T14:01:06.100Z,39.91
2017-08-13T14:03:34.878Z,40.20
2017-08-13T14:06:03.258Z,40.63
2017-08-13T14:08:31.625Z,40.16
2017-08-13T14:11:00.540Z,40.24
2017-08-13T14:13:28.902Z,40.61
2017-08-13T14:15:57.266Z,41.02
2017-08-13T14:18:26.075Z,40.07
2017-08-13T14:20:54.449Z,41.06
2017-08-13T14:23:22.827Z,41.01
2017-08-13T14:25:51.605Z,41.49
2017-08-13T14:28:19.968Z,41.94
2017-08-13T14:30:48.350Z,41.97
2017-08-13T14:33:17.152Z,42.21
2017-08-13T14:35:46.273Z,42.39
2017-08-13T14:38:14.696Z,43.89
2017-08-13T14:40:43.386Z,43.34
2017-08-13T14:43:11.770Z,43.42
2017-08-13T14:45:40.148Z,44.36
2017-08-13T14:48:09.203Z,45.02
2017-08-13T14:50:37.620Z,44.56
2017-08-13T14:53:05.967Z,45.35
2017-08-13T14:55:34.748Z,45.71
2017-08-13T14:58:03.158Z,46.09
2017-08-13T15:00:31.507Z,46.13
2017-08-13T15:03:00.184Z,47.03
2017-08-13T15:05:28.547Z,47.48
2017-08-13T15:07:56.915Z,47.45
2017-08-13T15:10:25.584Z,47.24
2017-08-13T15:12:53.941Z,47.92
2017-08-13T15:15:22.307Z,49.18
2017-08-13T15:17:51.142Z,49.50
2017-08-13T15:20:19.500Z,48.99
2017-08-13T15:22:47.865Z,49.18
2017-08-13T15:25:16.627Z,49.11
2017-08-13T15:27:44.974Z,48.09
2017-08-13T15:30:13.350Z,48.21
2017-08-13T15:32:42.042Z,47.74
2017-08-13T15:35:10.429Z,46.37
2017-08-13T15:37:38.801Z,46.09
2017-08-13T15:40:07.924Z,44.46
2017-08-13T15:42:36.250Z,44.28
2017-08-13T15:45:04.604Z,43.52
2017-08-13T15:47:33.412Z,43.61
2017-08-13T15:50:02.103Z,43.75
2017-08-13T15:52:30.486Z,43.53
2017-08-13T15:54:59.241Z,43.32
2017-08-13T15:57:27.618Z,43.21
2017-08-13T15:59:56.011Z,42.71
2017-08-13T16:02:24.740Z,43.37
2017-08-13T16:04:53.952Z,43.66
2017-08-13T16:07:22.331Z,44.59
2017-08-13T16:09:51.802Z,45.06
2017-08-13T16:12:20.156Z,45.81
2017-08-13T16:14:48.536Z,45.87
2017-08-13T16:17:17.230Z,43.92
2017-08-13T16:19:45.577Z,44.05
2017-08-13T16:22:13.956Z,43.98
2017-08-13T16:24:42.826Z,44.02
2017-08-13T16:27:11.186Z,44.15
2017-08-13T16:29:39.520Z,44.64
2017-08-13T16:32:08.308Z,44.80
2017-08-13T16:34:36.673Z,45.93
2017-08-13T16:37:05.024Z,45.85
2017-08-13T16:39:33.912Z,46.34
2017-08-13T16:42:02.248Z,46.76
2017-08-13T16:44:30.590Z,46.99
2017-08-13T16:46:59.301Z,47.18
2017-08-13T16:49:27.674Z,47.93
2017-08-13T16:51:56.037Z,48.37
2017-08-13T16:54:24.704Z,48.03
2017-08-13T16:56:53.111Z,48.27
2017-08-13T16:59:21.473Z,48.91
2017-08-13T17:01:51.087Z,49.01
2017-08-13T17:04:19.460Z,49.58
2017-08-13T17:06:58.217Z,48.42
2017-08-13T17:09:26.598Z,48.65
2017-08-13T17:11:54.983Z,49.00
2017-08-13T17:14:23.631Z,49.26
2017-08-13T17:16:51.976Z,50.22
2017-08-13T17:19:20.358Z,50.17
2017-08-13T17:21:49.029Z,50.43
2017-08-13T17:24:17.383Z,50.78
2017-08-13T17:26:45.759Z,51.00
2017-08-13T17:29:14.583Z,51.20
2017-08-13T17:31:42.931Z,51.33
2017-08-13T17:34:11.276Z,51.46
2017-08-13T17:36:39.921Z,51.11
2017-08-13T17:39:08.293Z,51.23
2017-08-13T17:41:36.647Z,52.37
2017-08-13T17:44:05.307Z,52.30
2017-08-13T17:46:33.660Z,52.84
2017-08-13T17:49:02.020Z,52.92
2017-08-13T17:51:30.874Z,52.88
2017-08-13T17:53:59.229Z,52.60
2017-08-13T17:56:27.599Z,52.07
2017-08-13T17:58:57.257Z,51.85
2017-08-13T18:01:25.651Z,51.73
2017-08-13T18:03:54.039Z,51.47
2017-08-13T18:06:22.676Z,51.10
2017-08-13T18:08:51.015Z,51.50
2017-08-13T18:11:19.389Z,50.88
2017-08-13T18:13:48.346Z,52.08
2017-08-13T18:16:16.709Z,51.96
2017-08-13T18:18:45.064Z,51.81
2017-08-13T18:21:13.733Z,51.90
2017-08-13T18:23:42.102Z,52.51
2017-08-13T18:26:10.449Z,52.98
2017-08-13T18:28:39.253Z,52.70
2017-08-13T18:31:07.620Z,53.20
2017-08-13T18:33:36.001Z,53.23
2017-08-13T18:36:04.897Z,53.44
2017-08-13T18:38:33.273Z,54.33
2017-08-13T18:41:01.652Z,55.36
2017-08-13T18:43:30.306Z,56.17
2017-08-13T18:45:58.683Z,56.24
2017-08-13T18:48:27.061Z,56.46
2017-08-13T18:50:55.787Z,55.96
2017-08-13T18:53:24.142Z,55.93
2017-08-13T18:55:52.504Z,55.52
2017-08-13T18:58:21.353Z,55.54
2017-08-13T19:00:49.718Z,56.24
2017-08-13T19:03:18.087Z,56.66
2017-08-13T19:05:46.856Z,56.90
2017-08-13T19:08:15.266Z,57.46
2017-08-13T19:10:43.658Z,57.71
2017-08-13T19:13:12.531Z,57.08
2017-08-13T19:15:40.941Z,56.34
2017-08-13T19:18:09.319Z,56.75
2017-08-13T19:20:38.058Z,56.19
2017-08-13T19:23:06.412Z,55.72
2017-08-13T19:25:34.757Z,56.44
2017-08-13T19:28:03.602Z,56.58
2017-08-13T19:30:32.000Z,57.09
2017-08-13T19:33:00.387Z,57.95
2017-08-13T19:35:29.099Z,58.17
2017-08-13T19:37:57.434Z,58.62
2017-08-13T19:40:25.799Z,58.96
2017-08-13T19:42:54.625Z,58.60
2017-08-13T19:45:22.991Z,58.65
2017-08-13T19:47:51.356Z,59.13
2017-08-13T19:50:20.140Z,59.23
2017-08-13T19:52:48.631Z,59.63
2017-08-13T19:55:17.011Z,59.43
2017-08-13T19:57:45.795Z,58.95
2017-08-13T20:00:14.162Z,57.92
2017-08-13T20:02:42.512Z,57.93
2017-08-13T20:05:11.210Z,57.53
2017-08-13T20:07:39.639Z,56.41
2017-08-13T20:10:08.001Z,55.45
2017-08-13T20:12:36.710Z,55.75
2017-08-13T20:15:05.120Z,54.67
2017-08-13T20:17:33.493Z,56.96
2017-08-13T20:20:02.182Z,56.16
2017-08-13T20:22:30.564Z,55.84
2017-08-13T20:24:58.927Z,55.34
2017-08-13T20:27:27.695Z,55.14
2017-08-13T20:29:56.072Z,55.14
2017-08-13T20:32:24.443Z,55.20
2017-08-13T20:34:53.138Z,55.20
2017-08-13T20:37:21.501Z,55.23
2017-08-13T20:39:49.857Z,54.93
2017-08-13T20:42:19.496Z,55.37
2017-08-13T20:44:47.862Z,55.35
2017-08-13T20:47:16.208Z,55.36
2017-08-13T20:49:45.183Z,55.67
2017-08-13T20:52:13.554Z,55.40
2017-08-13T20:54:42.038Z,55.75
2017-08-13T20:57:10.800Z,55.92
2017-08-13T20:59:39.164Z,56.04
2017-08-13T21:02:07.510Z,55.65
2017-08-13T21:04:36.188Z,55.40
2017-08-13T21:07:04.539Z,56.10
2017-08-13T21:09:32.934Z,55.47
2017-08-13T21:12:01.810Z,56.06
2017-08-13T21:14:30.164Z,56.40
2017-08-13T21:16:58.541Z,56.23
2017-08-13T21:19:27.167Z,56.44
2017-08-13T21:21:55.511Z,56.71
2017-08-13T21:24:23.850Z,57.17
2017-08-13T21:26:52.540Z,57.42
2017-08-13T21:29:20.898Z,57.19
2017-08-13T21:31:49.253Z,57.68
2017-08-13T21:34:18.212Z,57.46
2017-08-13T21:36:46.571Z,57.76
2017-08-13T21:39:15.688Z,58.41
2017-08-13T21:41:44.328Z,58.42
2017-08-13T21:44:12.672Z,58.69
2017-08-13T21:46:41.063Z,59.06
2017-08-13T21:49:10.572Z,59.47
2017-08-13T21:51:38.926Z,59.19
2017-08-13T21:54:07.338Z,59.40
2017-08-13T21:56:36.208Z,59.45
2017-08-13T21:59:04.569Z,59.34
2017-08-13T22:01:32.913Z,59.97
2017-08-13T22:04:01.640Z,60.67
2017-08-13T22:06:30.014Z,60.31
2017-08-13T22:08:58.396Z,60.20
2017-08-13T22:11:27.291Z,60.75
2017-08-13T22:13:55.688Z,60.91
2017-08-13T22:16:24.052Z,61.21
2017-08-13T22:18:52.809Z,61.24
2017-08-13T22:21:21.934Z,61.49
2017-08-13T22:23:50.346Z,60.92
2017-08-13T22:26:19.206Z,60.92
2017-08-13T22:28:47.556Z,61.30
2017-08-13T22:31:16.677Z,61.76
2017-08-13T22:33:45.458Z,62.21
2017-08-13T22:36:13.819Z,62.55
2017-08-13T22:38:42.962Z,62.99
2017-08-13T22:41:11.793Z,63.01
2017-08-13T22:43:40.166Z,63.35
2017-08-13T22:46:08.500Z,63.29
2017-08-13T22:48:37.366Z,63.09
2017-08-13T22:51:05.733Z,62.84
2017-08-13T22:53:34.842Z,62.84
2017-08-13T22:56:04.304Z,62.93
2017-08-13T22:58:32.657Z,63.11
2017-08-13T23:01:16.028Z,63.21
2017-08-13T23:03:44.409Z,63.47
2017-08-13T23:06:12.802Z,63.73
2017-08-13T23:08:42.211Z,63.43
2017-08-13T23:11:10.619Z,64.01
2017-08-13T23:13:38.972Z,63.91
2017-08-13T23:16:07.887Z,64.79
2017-08-13T23:18:36.260Z,64.91
2017-08-13T23:21:04.646Z,64.84
2017-08-13T23:23:33.826Z,65.35
2017-08-13T23:26:02.158Z,65.60
2017-08-13T23:28:30.489Z,65.76
2017-08-13T23:30:59.170Z,64.83
2017-08-13T23:33:27.536Z,65.04
2017-08-13T23:35:56.657Z,65.58
2017-08-13T23:38:25.367Z,66.64
2017-08-13T23:40:53.711Z,67.95
2017-08-13T23:43:22.064Z,68.79
2017-08-13T23:45:51.085Z,68.83
2017-08-13T23:48:19.447Z,68.93
2017-08-13T23:50:48.559Z,69.35
2017-08-13T23:53:17.348Z,69.86
2017-08-13T23:55:45.699Z,70.24
2017-08-13T23:58:14.819Z,70.36
